createdAt,value
2022-08-09T00:02:29.394Z,17.20
2022-08-09T00:07:30.070Z,17.27
2022-08-09T00:12:45.690Z,17.28
2022-08-09T00:18:07.696Z,17.17
2022-08-09T00:23:55.133Z,17.03
2022-08-09T00:28:28.852Z,17.21
2022-08-09T00:33:49.175Z,17.07
2022-08-09T00:38:51.655Z,16.87
2022-08-09T00:44:14.999Z,17.11
2022-08-09T00:49:15.124Z,16.97
2022-08-09T00:54:18.457Z,16.93
2022-08-09T00:59:40.449Z,16.82
2022-08-09T01:04:49.857Z,16.65
2022-08-09T01:10:00.360Z,16.51
2022-08-09T01:15:06.086Z,16.41
2022-08-09T01:20:26.601Z,16.27
2022-08-09T01:25:56.726Z,16.09
2022-08-09T01:31:01.847Z,16.16
2022-08-09T01:36:09.826Z,16.00
2022-08-09T01:41:15.182Z,15.92
2022-08-09T01:46:24.687Z,15.98
2022-08-09T01:51:32.538Z,16.08
2022-08-09T01:56:37.603Z,16.03
2022-08-09T02:01:59.791Z,15.97
2022-08-09T02:07:15.545Z,15.83
2022-08-09T02:12:33.474Z,15.88
2022-08-09T02:18:00.971Z,15.73
2022-08-09T02:23:06.043Z,15.61
2022-08-09T02:28:11.425Z,15.56
2022-08-09T02:33:58.298Z,15.46
2022-08-09T02:38:49.040Z,15.48
2022-08-09T02:43:54.512Z,15.48
2022-08-09T02:48:59.926Z,15.59
2022-08-09T02:54:03.710Z,15.34
2022-08-09T02:59:06.114Z,15.30
2022-08-09T03:04:19.153Z,15.07
2022-08-09T03:09:21.260Z,15.00
2022-08-09T03:14:28.120Z,14.92
2022-08-09T03:19:59.240Z,14.82
2022-08-09T03:25:05.925Z,14.95
2022-08-09T03:30:13.994Z,15.03
2022-08-09T03:35:24.685Z,14.95
2022-08-09T03:40:25.620Z,15.01
2022-08-09T03:46:05.396Z,15.16
2022-08-09T03:50:55.082Z,14.95
2022-08-09T03:55:57.767Z,15.19
2022-08-09T04:00:58.652Z,15.07
2022-08-09T04:06:00.739Z,14.85
2022-08-09T04:11:05.951Z,14.55
2022-08-09T04:16:19.690Z,14.40
2022-08-09T04:21:23.001Z,14.31
2022-08-09T04:26:24.772Z,14.26
2022-08-09T04:31:37.562Z,14.27
2022-08-09T04:36:50.157Z,14.25
2022-08-09T04:41:51.148Z,14.37
2022-08-09T04:46:57.636Z,14.36
2022-08-09T04:52:01.626Z,14.39
2022-08-09T04:57:03.837Z,14.41
2022-08-09T05:02:05.097Z,14.51
2022-08-09T05:07:08.337Z,14.60
2022-08-09T05:12:21.081Z,14.69
2022-08-09T05:18:38.364Z,14.76
2022-08-09T05:23:55.628Z,14.87
2022-08-09T05:28:06.327Z,14.99
2022-08-09T05:33:09.502Z,15.17
2022-08-09T05:38:13.049Z,15.40
2022-08-09T05:43:22.822Z,15.56
2022-08-09T05:48:27.659Z,15.78
2022-08-09T05:53:37.223Z,15.94
2022-08-09T05:58:58.563Z,16.14
2022-08-09T06:03:59.589Z,16.44
2022-08-09T06:09:10.037Z,16.66
2022-08-09T06:14:24.040Z,16.83
2022-08-09T06:19:24.979Z,17.14
2022-08-09T06:24:29.724Z,17.41
2022-08-09T06:29:31.867Z,17.44
2022-08-09T06:34:53.062Z,17.62
2022-08-09T06:40:00.119Z,17.67
2022-08-09T06:45:20.345Z,17.85
2022-08-09T06:50:23.201Z,18.06
2022-08-09T06:55:31.872Z,18.16
2022-08-09T07:00:55.052Z,18.50
2022-08-09T07:06:04.678Z,18.76
2022-08-09T07:11:07.806Z,19.06
2022-08-09T07:16:42.209Z,19.64
2022-08-09T07:21:30.876Z,20.07
2022-08-09T07:26:33.077Z,20.19
2022-08-09T07:31:38.045Z,20.18
2022-08-09T07:36:40.910Z,20.17
2022-08-09T07:41:42.973Z,20.10
2022-08-09T07:46:47.538Z,20.15
2022-08-09T07:52:06.169Z,20.33
2022-08-09T07:57:11.760Z,20.46
2022-08-09T08:02:13.205Z,20.82
2022-08-09T08:08:44.350Z,21.11
2022-08-09T08:12:45.508Z,21.34
2022-08-09T08:17:54.877Z,21.47
2022-08-09T08:22:56.580Z,21.64
2022-08-09T08:28:04.328Z,21.79
2022-08-09T08:33:11.752Z,21.98
2022-08-09T08:38:12.999Z,22.28
2022-08-09T08:43:15.391Z,22.39
2022-08-09T08:48:19.287Z,22.54
2022-08-09T08:53:21.984Z,22.71
2022-08-09T08:58:27.387Z,22.94
2022-08-09T09:03:37.549Z,23.00
2022-08-09T09:08:42.320Z,23.20
2022-08-09T09:13:56.809Z,23.28
2022-08-09T09:19:22.555Z,23.66
2022-08-09T09:24:21.389Z,24.16
2022-08-09T09:29:40.936Z,24.58
2022-08-09T09:35:09.913Z,24.82
2022-08-09T09:40:12.492Z,24.97
2022-08-09T09:45:26.540Z,25.33
2022-08-09T09:50:51.151Z,25.56
2022-08-09T09:56:05.322Z,26.15
2022-08-09T10:01:31.559Z,26.15
2022-08-09T10:06:42.954Z,26.06
2022-08-09T10:12:11.859Z,26.26
2022-08-09T10:17:40.759Z,26.09
2022-08-09T10:22:35.209Z,26.23
2022-08-09T10:27:38.698Z,26.23
2022-08-09T10:32:48.870Z,26.28
2022-08-09T10:37:52.838Z,26.66
2022-08-09T10:42:53.934Z,26.43
2022-08-09T10:48:16.528Z,27.35
2022-08-09T10:53:46.865Z,27.12
2022-08-09T10:58:57.348Z,26.71
2022-08-09T11:04:30.380Z,27.04
2022-08-09T11:09:51.088Z,26.68
2022-08-09T11:14:58.278Z,26.81
2022-08-09T11:20:10.995Z,27.39
2022-08-09T11:25:26.039Z,27.22
2022-08-09T11:30:38.045Z,27.08
2022-08-09T11:35:49.866Z,27.45
2022-08-09T11:40:54.794Z,27.30
2022-08-09T11:45:57.617Z,27.32
2022-08-09T11:52:54.089Z,27.41
2022-08-09T11:56:41.363Z,27.62
2022-08-09T12:02:17.644Z,27.42
2022-08-09T12:07:11.885Z,27.97
2022-08-09T12:12:20.582Z,28.85
2022-08-09T12:17:41.526Z,29.56
2022-08-09T12:22:47.407Z,29.61
2022-08-09T12:29:10.222Z,28.44
2022-08-09T12:33:50.770Z,28.02
2022-08-09T12:38:53.332Z,27.51
2022-08-09T12:44:06.526Z,26.76
2022-08-09T12:49:09.022Z,26.45
2022-08-09T12:54:10.973Z,26.61
2022-08-09T12:59:13.998Z,26.95
2022-08-09T13:04:36.198Z,27.32
2022-08-09T13:09:40.912Z,27.77
2022-08-09T13:14:47.342Z,27.75
2022-08-09T13:20:10.101Z,27.87
2022-08-09T13:25:15.358Z,28.21
2022-08-09T13:30:50.280Z,28.62
2022-08-09T13:36:24.355Z,27.53
2022-08-09T13:41:51.427Z,27.53
2022-08-09T13:47:15.191Z,27.86
2022-08-09T13:52:00.837Z,27.42
2022-08-09T13:57:06.288Z,27.41
2022-08-09T14:02:07.527Z,27.24
2022-08-09T14:07:10.640Z,27.45
2022-08-09T14:12:15.539Z,27.92
2022-08-09T14:17:16.973Z,27.23
2022-08-09T14:22:23.377Z,27.60
2022-08-09T14:27:25.347Z,27.04
2022-08-09T14:32:30.919Z,27.24
2022-08-09T14:37:51.725Z,27.58
2022-08-09T14:42:55.095Z,26.85
2022-08-09T14:48:00.008Z,27.36
2022-08-09T14:53:01.756Z,27.50
2022-08-09T14:58:05.589Z,27.53
2022-08-09T15:03:10.532Z,28.43
2022-08-09T15:08:11.413Z,28.82
2022-08-09T15:13:18.423Z,29.48
2022-08-09T15:18:19.041Z,29.98
2022-08-09T15:24:03.764Z,29.33
2022-08-09T15:28:42.090Z,28.61
2022-08-09T15:34:18.254Z,27.80
2022-08-09T15:39:04.488Z,27.21
2022-08-09T15:44:06.565Z,27.19
2022-08-09T15:49:21.831Z,26.97
2022-08-09T15:54:31.308Z,27.35
2022-08-09T15:59:40.458Z,28.12
2022-08-09T16:04:42.970Z,29.12
2022-08-09T16:10:02.437Z,30.09
2022-08-09T16:16:04.628Z,30.36
2022-08-09T16:20:30.368Z,30.57
2022-08-09T16:25:40.582Z,29.86
2022-08-09T16:30:44.794Z,30.03
2022-08-09T16:36:03.201Z,29.63
2022-08-09T16:41:16.675Z,28.85
2022-08-09T16:46:21.371Z,28.29
2022-08-09T16:51:22.557Z,26.99
2022-08-09T16:56:25.189Z,26.48
2022-08-09T17:01:27.789Z,26.13
2022-08-09T17:08:40.990Z,25.90
2022-08-09T17:11:55.459Z,26.01
2022-08-09T17:17:00.168Z,26.69
2022-08-09T17:22:01.967Z,27.28
2022-08-09T17:27:02.640Z,27.83
2022-08-09T17:32:15.777Z,27.97
2022-08-09T17:37:21.034Z,27.86
2022-08-09T17:42:40.994Z,28.36
2022-08-09T17:47:49.419Z,29.07
2022-08-09T17:52:51.845Z,29.58
2022-08-09T17:58:03.563Z,29.17
2022-08-09T18:03:07.398Z,27.67
2022-08-09T18:08:11.174Z,26.55
2022-08-09T18:13:43.650Z,26.04
2022-08-09T18:18:43.186Z,25.50
2022-08-09T18:24:09.999Z,25.31
2022-08-09T18:30:40.621Z,25.04
2022-08-09T18:34:35.159Z,24.85
2022-08-09T18:39:39.609Z,24.53
2022-08-09T18:44:42.734Z,24.21
2022-08-09T18:49:46.921Z,23.97
2022-08-09T18:54:49.823Z,23.75
2022-08-09T19:00:01.515Z,23.67
2022-08-09T19:05:19.637Z,23.29
2022-08-09T19:10:21.481Z,23.07
2022-08-09T19:15:22.997Z,22.90
2022-08-09T19:20:25.266Z,22.74
2022-08-09T19:26:00.902Z,22.54
2022-08-09T19:30:46.531Z,22.37
2022-08-09T19:35:57.861Z,22.37
2022-08-09T19:41:01.670Z,22.23
2022-08-09T19:46:02.362Z,22.18
2022-08-09T19:51:06.841Z,22.07
2022-08-09T19:56:08.105Z,21.97
2022-08-09T20:01:16.471Z,21.97
2022-08-09T20:06:24.035Z,21.67
2022-08-09T20:11:42.957Z,21.76
2022-08-09T20:16:50.297Z,21.46
2022-08-09T20:22:00.168Z,21.47
2022-08-09T20:27:01.476Z,21.17
2022-08-09T20:32:31.080Z,21.10
2022-08-09T20:37:24.076Z,20.83
2022-08-09T20:42:24.799Z,20.70
2022-08-09T20:47:48.139Z,20.67
2022-08-09T20:52:47.463Z,20.71
2022-08-09T20:58:08.191Z,20.53
2022-08-09T21:03:08.919Z,20.59
2022-08-09T21:08:10.967Z,20.55
2022-08-09T21:13:14.047Z,20.35
2022-08-09T21:18:24.717Z,20.21
2022-08-09T21:23:47.813Z,20.15
2022-08-09T21:28:55.545Z,20.04
2022-08-09T21:33:56.997Z,20.05
2022-08-09T21:38:59.944Z,19.91
2022-08-09T21:44:01.284Z,20.02
2022-08-09T21:49:01.888Z,20.02
2022-08-09T21:54:03.885Z,19.96
2022-08-09T21:59:04.528Z,19.82
2022-08-09T22:04:06.076Z,19.68
2022-08-09T22:09:11.081Z,19.54
2022-08-09T22:14:13.273Z,19.40
2022-08-09T22:19:59.131Z,19.28
2022-08-09T22:24:37.381Z,19.19
2022-08-09T22:29:54.913Z,19.10
2022-08-09T22:35:02.252Z,19.13
2022-08-09T22:40:10.678Z,19.22
2022-08-09T22:48:15.226Z,19.15
2022-08-09T22:50:41.604Z,18.87
2022-08-09T22:56:29.778Z,18.85
2022-08-09T23:01:15.791Z,18.70
2022-08-09T23:06:35.492Z,18.83
2022-08-09T23:11:38.209Z,18.95
2022-08-09T23:16:38.979Z,18.79
2022-08-09T23:21:39.706Z,18.80
2022-08-09T23:26:42.359Z,18.57
2022-08-09T23:31:43.435Z,18.40
2022-08-09T23:36:44.051Z,18.27
2022-08-09T23:41:45.985Z,18.05
2022-08-09T23:46:47.414Z,17.88
2022-08-09T23:51:56.680Z,17.78
2022-08-09T23:56:58.745Z,17.75
